Time;durP1;ratioP1;P1;durP2;ratioP2;P2;SDS_P1;SDS_P2;PMS_P1;PMS_P2;Temp;Humidity;BMP_temperature;BMP_pressure;BME280_temperature;BME280_humidity;BME280_pressure;Samples;Min_cycle;Max_cycle;Signal;HPM_P1;HPM_P2
2023/11/18 00:00:14;;;;;;;5.80;2.33;;;;;;;0.30;69.41;102406.84;5059795;28;20047;-72
2023/11/18 00:02:42;;;;;;;5.53;2.28;;;;;;;0.30;69.75;102401.69;5060279;28;20485;-73
2023/11/18 00:05:11;;;;;;;5.13;2.05;;;;;;;0.29;70.49;102405.09;5056748;28;20044;-73
2023/11/18 00:07:37;;;;;;;5.28;1.88;;;;;;;0.28;69.41;102405.88;5059508;28;20047;-74
2023/11/18 00:10:06;;;;;;;5.10;1.70;;;;;;;0.25;70.01;102401.47;5065555;28;20791;-73
2023/11/18 00:12:34;;;;;;;5.68;1.50;;;;;;;0.24;69.59;102397.13;5060865;28;20048;-74
2023/11/18 00:15:03;;;;;;;3.92;1.40;;;;;;;0.23;70.40;102403.09;5058883;28;20049;-73
2023/11/18 00:17:30;;;;;;;3.00;1.70;;;;;;;0.23;70.00;102397.97;5059231;28;20141;-73
2023/11/18 00:19:56;;;;;;;4.47;1.90;;;;;;;0.21;69.66;102403.00;5059012;28;20040;-73
2023/11/18 00:22:25;;;;;;;4.70;1.77;;;;;;;0.21;70.07;102391.84;5057428;28;20494;-73
2023/11/18 00:24:52;;;;;;;7.75;2.10;;;;;;;0.19;70.59;102399.47;5057542;28;20063;-73
2023/11/18 00:27:19;;;;;;;4.65;1.73;;;;;;;0.19;70.08;102402.03;5059672;28;20548;-73
2023/11/18 00:29:45;;;;;;;3.78;1.98;;;;;;;0.17;69.46;102403.66;5055306;28;20044;-73
2023/11/18 00:32:12;;;;;;;4.63;1.77;;;;;;;0.18;70.30;102410.56;5058977;28;20051;-74
2023/11/18 00:34:39;;;;;;;3.75;1.38;;;;;;;0.16;70.25;102409.59;5061022;28;20052;-73
2023/11/18 00:37:07;;;;;;;4.88;2.15;;;;;;;0.17;70.53;102402.75;5064657;28;20055;-73
2023/11/18 00:39:35;;;;;;;4.20;2.53;;;;;;;0.16;70.44;102404.47;5057614;28;20051;-73
2023/11/18 00:42:02;;;;;;;6.90;2.53;;;;;;;0.17;70.62;102397.63;5059329;28;20530;-72
2023/11/18 00:44:29;;;;;;;3.97;1.92;;;;;;;0.16;70.56;102401.00;5059144;28;20490;-72
2023/11/18 00:46:57;;;;;;;2.53;1.55;;;;;;;0.17;70.58;102403.66;5059888;28;20041;-72
2023/11/18 00:49:25;;;;;;;5.45;2.15;;;;;;;0.16;70.65;102404.47;5059017;28;20094;-71
2023/11/18 00:51:52;;;;;;;3.92;1.90;;;;;;;0.15;70.69;102410.41;5061454;28;20050;-72
2023/11/18 00:54:19;;;;;;;3.55;2.28;;;;;;;0.15;70.33;102407.84;5055402;28;20071;-72
2023/11/18 00:56:47;;;;;;;5.15;2.40;;;;;;;0.14;70.47;102411.22;5056419;28;20049;-71
2023/11/18 00:59:15;;;;;;;3.53;2.03;;;;;;;0.14;70.54;102408.66;5058306;28;20290;-72
2023/11/18 01:01:43;;;;;;;4.70;1.65;;;;;;;0.15;70.39;102410.41;5061607;28;20545;-72
2023/11/18 01:04:10;;;;;;;6.07;2.25;;;;;;;0.16;70.66;102412.16;5061684;28;20048;-72
2023/11/18 01:06:36;;;;;;;5.97;2.50;;;;;;;0.16;70.63;102412.16;5060039;28;20051;-72
2023/11/18 01:09:03;;;;;;;4.70;2.58;;;;;;;0.15;70.62;102410.41;5059165;28;20048;-72
2023/11/18 01:11:30;;;;;;;7.15;2.22;;;;;;;0.15;71.17;102410.41;5060935;28;20076;-71
2023/11/18 01:13:59;;;;;;;7.07;3.05;;;;;;;0.15;70.83;102409.53;5059222;28;20048;-72
2023/11/18 01:16:25;;;;;;;6.30;3.13;;;;;;;0.14;71.11;102400.94;5056309;28;20059;-72
2023/11/18 01:18:52;;;;;;;5.75;1.85;;;;;;;0.15;71.32;102400.13;5057442;28;20746;-72
2023/11/18 01:21:19;;;;;;;5.25;2.60;;;;;;;0.15;70.96;102404.41;5057099;28;20037;-72
2023/11/18 01:23:46;;;;;;;6.88;2.88;;;;;;;0.15;71.28;102400.13;5061861;28;20400;-72
2023/11/18 01:26:13;;;;;;;4.88;2.17;;;;;;;0.15;70.75;102405.28;5058783;28;20045;-72
2023/11/18 01:28:42;;;;;;;5.55;2.83;;;;;;;0.14;71.49;102403.53;5058001;28;20410;-71
2023/11/18 01:31:10;;;;;;;8.70;3.10;;;;;;;0.14;71.16;102400.94;5061352;28;20044;-72
2023/11/18 01:33:39;;;;;;;6.55;2.85;;;;;;;0.12;70.91;102397.41;5059485;28;20067;-72
2023/11/18 01:36:09;;;;;;;6.72;3.08;;;;;;;0.12;70.74;102393.97;5059808;28;20124;-72
2023/11/18 01:38:37;;;;;;;5.35;3.10;;;;;;;0.11;70.61;102390.50;5059399;28;20052;-72
2023/11/18 01:41:04;;;;;;;5.78;2.92;;;;;;;0.12;71.22;102384.56;5057399;28;20053;-72
2023/11/18 01:43:32;;;;;;;11.18;2.47;;;;;;;0.13;71.17;102383.75;5060395;28;20055;-72
2023/11/18 01:46:01;;;;;;;7.70;2.45;;;;;;;0.12;71.40;102379.44;5060767;28;20049;-72
2023/11/18 01:48:30;;;;;;;4.72;2.13;;;;;;;0.13;71.06;102386.31;5057416;28;20059;-72
2023/11/18 01:50:58;;;;;;;6.93;2.35;;;;;;;0.12;71.42;102387.13;5059469;28;20048;-72
2023/11/18 01:53:26;;;;;;;3.60;1.73;;;;;;;0.11;71.63;102375.06;5058179;28;20044;-69
2023/11/18 01:55:54;;;;;;;5.72;1.90;;;;;;;0.11;71.52;102377.63;5056215;28;20216;-69
2023/11/18 01:58:22;;;;;;;5.47;2.20;;;;;;;0.09;71.79;102376.72;5053737;28;20086;-69
2023/11/18 02:00:51;;;;;;;4.18;2.13;;;;;;;0.09;71.26;102371.56;5055730;28;20573;-69
2023/11/18 02:03:20;;;;;;;3.92;2.10;;;;;;;0.09;71.80;102376.72;5058242;28;20053;-72
2023/11/18 02:05:48;;;;;;;3.42;2.03;;;;;;;0.07;71.45;102375.75;5062427;28;20132;-72
2023/11/18 02:08:15;;;;;;;3.80;1.85;;;;;;;0.07;71.58;102375.75;5054239;28;20044;-72
2023/11/18 02:10:50;;;;;;;6.93;1.92;;;;;;;0.02;70.89;102356.63;5060848;28;20049;-72
2023/11/18 02:13:25;;;;;;;4.43;1.75;;;;;;;0.07;71.32;102373.16;5056118;28;20045;-72
2023/11/18 02:15:56;;;;;;;6.47;1.73;;;;;;;0.07;71.45;102368.03;5062102;28;20556;-72
2023/11/18 02:18:25;;;;;;;6.60;1.90;;;;;;;0.02;71.86;102366.03;5056514;28;20049;-72
2023/11/18 02:20:57;;;;;;;4.72;2.75;;;;;;;0.08;71.48;102374.03;5057183;28;20052;-72
2023/11/18 02:23:26;;;;;;;7.07;2.42;;;;;;;0.06;71.83;102379.13;5056011;28;20136;-71
2023/11/18 02:25:55;;;;;;;5.70;2.15;;;;;;;0.07;71.80;102380.88;5051478;28;20161;-72
2023/11/18 02:28:22;;;;;;;4.95;1.70;;;;;;;0.07;71.79;102380.88;5059216;28;20095;-72
2023/11/18 02:30:51;;;;;;;3.63;1.58;;;;;;;0.06;72.03;102374.00;5057451;28;20067;-72
2023/11/18 02:33:26;;;;;;;7.57;1.80;;;;;;;0.05;71.55;102376.47;5059327;28;20048;-72
2023/11/18 02:35:57;;;;;;;6.28;1.80;;;;;;;0.04;71.42;102380.72;5060591;28;20076;-72
2023/11/18 02:38:31;;;;;;;4.20;2.10;;;;;;;0.04;72.37;102380.72;5059838;28;20053;-71
2023/11/18 02:41:02;;;;;;;4.57;1.88;;;;;;;0.05;71.24;102377.34;5056151;28;20044;-72
2023/11/18 02:43:29;;;;;;;4.03;1.70;;;;;;;0.04;71.63;102378.16;5057775;28;20044;-72
2023/11/18 02:45:58;;;;;;;2.90;1.50;;;;;;;0.07;71.90;102374.88;5064604;28;20053;-72
2023/11/18 02:48:28;;;;;;;4.57;1.30;;;;;;;0.07;71.59;102370.59;5055375;28;20049;-72
2023/11/18 02:50:55;;;;;;;3.97;2.33;;;;;;;0.08;71.76;102367.22;5059232;28;20275;-71
2023/11/18 02:53:22;;;;;;;4.07;1.80;;;;;;;0.09;72.01;102366.44;5059169;28;20124;-72
2023/11/18 02:55:51;;;;;;;4.63;2.13;;;;;;;0.09;72.65;102371.56;5055866;28;20405;-72
2023/11/18 02:58:20;;;;;;;3.17;2.25;;;;;;;0.10;71.65;102369.88;5054896;28;20442;-72
2023/11/18 03:00:47;;;;;;;3.15;1.65;;;;;;;0.10;72.35;102365.63;5055949;28;20785;-71
2023/11/18 03:03:15;;;;;;;4.18;1.77;;;;;;;0.09;72.40;102366.44;5055235;28;20049;-72
2023/11/18 03:05:42;;;;;;;4.53;2.17;;;;;;;0.10;72.25;102373.31;5055984;28;20040;-71
2023/11/18 03:08:09;;;;;;;10.25;2.10;;;;;;;0.11;72.40;102366.50;5058723;28;20152;-71
2023/11/18 03:10:37;;;;;;;3.30;1.02;;;;;;;0.11;72.24;102372.50;5059761;28;20173;-72
2023/11/18 03:13:04;;;;;;;9.38;2.67;;;;;;;0.12;72.38;102379.44;5061246;28;20051;-75
2023/11/18 03:15:32;;;;;;;3.05;1.13;;;;;;;0.13;72.66;102373.47;5062073;28;20049;-75
2023/11/18 03:17:59;;;;;;;6.75;2.03;;;;;;;0.14;71.90;102377.81;5058506;28;20055;-75
2023/11/18 03:20:26;;;;;;;6.38;1.98;;;;;;;0.14;73.09;102375.25;5063467;28;20711;-75
2023/11/18 03:22:53;;;;;;;6.65;2.10;;;;;;;0.16;72.33;102376.19;5068939;28;20040;-75
2023/11/18 03:25:21;;;;;;;5.28;2.47;;;;;;;0.17;72.04;102364.22;5064801;28;20055;-75
2023/11/18 03:27:48;;;;;;;4.05;2.15;;;;;;;0.17;72.43;102370.28;5062589;28;20048;-75
2023/11/18 03:30:16;;;;;;;2.80;1.73;;;;;;;0.17;72.34;102370.28;5061661;28;20045;-75
2023/11/18 03:32:45;;;;;;;6.35;2.13;;;;;;;0.18;73.18;102372.03;5062648;28;20049;-76
2023/11/18 03:35:12;;;;;;;4.65;2.00;;;;;;;0.19;72.81;102376.34;5058955;28;20405;-75
2023/11/18 03:37:40;;;;;;;6.00;1.90;;;;;;;0.21;72.38;102369.59;5064409;28;20444;-75
2023/11/18 03:40:09;;;;;;;3.50;1.77;;;;;;;0.21;72.54;102373.84;5058823;28;20049;-75
2023/11/18 03:42:37;;;;;;;6.90;2.00;;;;;;;0.23;73.15;102372.25;5059000;28;20045;-75
2023/11/18 03:45:04;;;;;;;5.50;1.95;;;;;;;0.24;73.05;102373.13;5059202;28;20032;-75
2023/11/18 03:47:31;;;;;;;4.28;1.70;;;;;;;0.24;72.60;102374.00;5062543;28;20520;-75
2023/11/18 03:49:59;;;;;;;5.47;2.38;;;;;;;0.25;72.59;102372.31;5061986;28;20637;-76
2023/11/18 03:52:27;;;;;;;5.53;2.38;;;;;;;0.20;72.63;102367.84;5058953;28;20055;-75
2023/11/18 03:54:54;;;;;;;4.13;1.80;;;;;;;0.27;72.73;102373.28;5063010;28;20120;-75
2023/11/18 03:57:21;;;;;;;5.80;2.15;;;;;;;0.27;73.43;102368.16;5063832;28;20044;-76
2023/11/18 03:59:48;;;;;;;4.47;2.10;;;;;;;0.28;72.92;102373.34;5060886;28;20044;-75
2023/11/18 04:02:15;;;;;;;2.42;1.67;;;;;;;0.28;72.79;102370.78;5062941;28;20056;-76
2023/11/18 04:04:42;;;;;;;4.60;1.65;;;;;;;0.29;73.00;102366.53;5062004;28;20041;-76
2023/11/18 04:07:10;;;;;;;5.10;1.55;;;;;;;0.31;72.79;102375.19;5062323;28;20037;-75
2023/11/18 04:09:37;;;;;;;4.28;2.10;;;;;;;0.32;73.42;102376.97;5061741;28;20512;-75
2023/11/18 04:12:05;;;;;;;3.17;1.70;;;;;;;0.32;72.66;102374.41;5063460;28;20047;-75
2023/11/18 04:14:32;;;;;;;3.72;1.48;;;;;;;0.34;72.78;102380.47;5065953;28;20052;-74
2023/11/18 04:16:59;;;;;;;2.38;1.23;;;;;;;0.34;73.18;102372.75;5058813;28;20114;-75
2023/11/18 04:19:27;;;;;;;5.38;1.85;;;;;;;0.35;72.80;102370.28;5058120;28;20052;-74
2023/11/18 04:21:53;;;;;;;4.60;1.30;;;;;;;0.36;73.28;102371.16;5063624;28;20070;-73
2023/11/18 04:24:22;;;;;;;2.63;1.42;;;;;;;0.37;73.15;102367.75;5060326;28;20044;-73
2023/11/18 04:26:49;;;;;;;2.88;1.52;;;;;;;0.38;72.92;102367.84;5059207;28;20052;-73
2023/11/18 04:29:16;;;;;;;3.65;1.67;;;;;;;0.39;72.69;102368.72;5062346;28;20048;-73
2023/11/18 04:31:42;;;;;;;3.67;1.40;;;;;;;0.40;73.43;102365.38;5056911;28;20044;-72
2023/11/18 04:34:09;;;;;;;3.33;1.15;;;;;;;0.41;72.85;102379.97;5057752;28;20041;-72
2023/11/18 04:36:37;;;;;;;2.55;1.20;;;;;;;0.41;73.35;102378.28;5061206;28;20408;-73
2023/11/18 04:39:04;;;;;;;3.05;1.45;;;;;;;0.42;73.35;102368.88;5059069;28;20597;-73
2023/11/18 04:41:32;;;;;;;5.35;1.33;;;;;;;0.42;72.69;102363.72;5057066;28;20055;-73
2023/11/18 04:43:59;;;;;;;2.25;0.90;;;;;;;0.43;73.37;102361.25;5059816;28;20052;-72
2023/11/18 04:46:26;;;;;;;3.20;1.13;;;;;;;0.45;73.41;102358.75;5060457;28;20059;-73
2023/11/18 04:48:54;;;;;;;2.65;0.80;;;;;;;0.46;73.59;102360.53;5058125;28;20044;-73
2023/11/18 04:51:22;;;;;;;2.53;0.90;;;;;;;0.46;73.36;102355.38;5058153;28;20123;-72
2023/11/18 04:53:49;;;;;;;1.48;0.60;;;;;;;0.48;72.67;102358.00;5062425;28;20049;-74
2023/11/18 04:56:18;;;;;;;1.17;0.95;;;;;;;0.48;72.54;102361.47;5062527;28;20041;-74
2023/11/18 04:58:47;;;;;;;3.58;1.00;;;;;;;0.48;73.27;102358.88;5056064;28;20062;-73
2023/11/18 05:01:15;;;;;;;1.83;0.90;;;;;;;0.48;73.25;102358.88;5058912;28;20075;-73
2023/11/18 05:03:41;;;;;;;1.98;0.65;;;;;;;0.48;72.60;102361.47;5058180;28;20060;-73
2023/11/18 05:06:08;;;;;;;2.60;0.77;;;;;;;0.50;72.72;102364.13;5062529;28;20786;-73
2023/11/18 05:08:36;;;;;;;2.50;0.60;;;;;;;0.49;73.21;102362.38;5059971;28;20539;-73
2023/11/18 05:11:04;;;;;;;1.80;0.80;;;;;;;0.48;72.97;102361.47;5059047;28;20044;-73
2023/11/18 05:13:32;;;;;;;1.67;0.70;;;;;;;0.48;72.51;102360.59;5061493;28;20061;-73
2023/11/18 05:16:00;;;;;;;1.73;0.75;;;;;;;0.47;72.39;102352.00;5061052;28;20044;-73
2023/11/18 05:18:29;;;;;;;6.45;1.25;;;;;;;0.47;73.20;102352.00;5060384;28;20048;-73
2023/11/18 05:20:57;;;;;;;1.75;0.60;;;;;;;0.47;72.90;102349.41;5060789;28;20080;-74
2023/11/18 05:23:24;;;;;;;2.22;0.75;;;;;;;0.46;72.38;102345.09;5057471;28;20436;-72
2023/11/18 05:25:51;;;;;;;3.60;1.00;;;;;;;0.46;72.64;102352.81;5061427;28;20071;-72
2023/11/18 05:28:17;;;;;;;1.30;0.80;;;;;;;0.37;72.43;102339.50;5058916;28;20140;-72
2023/11/18 05:30:44;;;;;;;1.85;0.70;;;;;;;0.45;72.92;102344.19;5059541;28;20048;-72
2023/11/18 05:33:17;;;;;;;5.78;0.90;;;;;;;0.46;72.54;102347.66;5056704;28;20047;-72
2023/11/18 05:35:49;;;;;;;5.15;1.40;;;;;;;0.45;72.69;102353.59;5056111;28;20044;-72
2023/11/18 05:38:18;;;;;;;2.90;1.00;;;;;;;0.44;72.61;102357.88;5066377;28;20055;-73
2023/11/18 05:40:55;;;;;;;4.95;1.00;;;;;;;0.33;72.85;102337.59;5064552;28;20052;-72
2023/11/18 05:43:24;;;;;;;3.47;0.85;;;;;;;0.43;72.36;102356.13;5057624;28;20045;-72
2023/11/18 05:46:14;;;;;;;4.03;1.10;;;;;;;0.44;72.79;102357.88;5053575;28;20045;-72
2023/11/18 05:48:43;;;;;;;2.83;1.00;;;;;;;0.44;73.01;102351.84;5058494;28;20067;-70
2023/11/18 05:51:10;;;;;;;3.30;1.52;;;;;;;0.41;72.88;102356.84;5060340;28;20086;-72
2023/11/18 05:53:41;;;;;;;2.22;1.23;;;;;;;0.42;72.27;102359.47;5064538;28;20478;-72
2023/11/18 05:56:08;;;;;;;7.18;1.38;;;;;;;0.42;72.44;102369.75;5061059;28;20114;-72
2023/11/18 05:58:35;;;;;;;2.42;1.35;;;;;;;0.42;72.42;102366.31;5060201;28;20052;-72
2023/11/18 06:01:03;;;;;;;3.92;1.50;;;;;;;0.39;73.09;102353.31;5057469;28;20405;-72
2023/11/18 06:03:30;;;;;;;2.70;1.02;;;;;;;0.43;72.45;102363.81;5054732;28;20060;-72
2023/11/18 06:05:58;;;;;;;5.70;1.48;;;;;;;0.43;72.69;102360.38;5060966;28;20052;-72
2023/11/18 06:08:25;;;;;;;3.08;1.48;;;;;;;0.44;72.59;102367.28;5059057;28;20040;-72
2023/11/18 06:10:56;;;;;;;3.17;1.58;;;;;;;0.44;73.21;102367.28;5061950;28;20446;-71
2023/11/18 06:13:23;;;;;;;3.90;1.77;;;;;;;0.42;73.33;102363.72;5055015;28;20056;-72
2023/11/18 06:15:51;;;;;;;3.20;1.60;;;;;;;0.46;73.42;102373.38;5060150;28;20456;-72
2023/11/18 06:18:18;;;;;;;4.60;1.65;;;;;;;0.41;72.93;102361.97;5056949;28;20049;-72
2023/11/18 06:20:45;;;;;;;3.20;1.63;;;;;;;0.48;73.77;102383.72;5058891;28;20049;-72
2023/11/18 06:23:15;;;;;;;5.53;1.70;;;;;;;0.49;73.40;102388.94;5057501;28;20421;-72
2023/11/18 06:25:42;;;;;;;2.53;1.33;;;;;;;0.50;72.41;102390.69;5057516;28;20056;-71
2023/11/18 06:28:09;;;;;;;2.78;1.40;;;;;;;0.50;73.32;102387.25;5057122;28;20041;-72
2023/11/18 06:30:36;;;;;;;7.60;1.83;;;;;;;0.50;73.00;102388.13;5057467;28;20055;-72
2023/11/18 06:33:03;;;;;;;5.38;1.67;;;;;;;0.52;73.37;102394.25;5058143;28;20052;-72
2023/11/18 06:35:30;;;;;;;7.63;2.15;;;;;;;0.54;73.35;102396.88;5060005;28;20524;-72
2023/11/18 06:37:58;;;;;;;4.15;2.05;;;;;;;0.53;73.42;102388.28;5055399;28;20057;-71
2023/11/18 06:40:27;;;;;;;5.57;2.88;;;;;;;0.55;73.41;102391.81;5056844;28;21019;-72
2023/11/18 06:43:01;;;;;;;3.03;1.50;;;;;;;0.55;73.65;102390.94;5057660;28;20266;-72
2023/11/18 06:45:31;;;;;;;5.53;1.80;;;;;;;0.57;73.58;102397.91;5057502;28;20451;-72
2023/11/18 06:47:58;;;;;;;4.07;2.17;;;;;;;0.57;73.52;102390.22;5055849;28;20302;-72
2023/11/18 06:50:26;;;;;;;3.00;1.50;;;;;;;0.58;73.46;102391.09;5063388;28;20062;-71
2023/11/18 06:52:53;;;;;;;4.45;1.85;;;;;;;0.58;73.58;102389.38;5063114;28;20075;-71
2023/11/18 06:55:20;;;;;;;4.18;1.70;;;;;;;0.60;73.17;102385.22;5060897;28;20469;-72
2023/11/18 06:57:48;;;;;;;6.45;2.15;;;;;;;0.61;73.03;102386.97;5062376;28;20060;-72
2023/11/18 07:00:16;;;;;;;4.75;1.52;;;;;;;0.60;72.77;102390.34;5062093;28;20043;-71
2023/11/18 07:02:43;;;;;;;2.92;1.27;;;;;;;0.62;73.55;102391.28;5059600;28;20059;-71
2023/11/18 07:05:11;;;;;;;3.05;1.58;;;;;;;0.64;73.76;102391.38;5061389;28;20470;-71
2023/11/18 07:07:38;;;;;;;4.38;1.55;;;;;;;0.64;73.16;102388.81;5059902;28;20053;-71
2023/11/18 07:10:06;;;;;;;4.10;1.88;;;;;;;0.65;72.94;102393.13;5062285;28;20796;-72
2023/11/18 07:12:36;;;;;;;2.67;1.52;;;;;;;0.66;73.34;102400.94;5059840;28;20413;-71
2023/11/18 07:15:06;;;;;;;4.85;1.75;;;;;;;0.67;73.31;102394.09;5059107;28;20444;-71
2023/11/18 07:17:34;;;;;;;2.10;1.30;;;;;;;0.69;73.47;102395.06;5059956;28;20052;-73
2023/11/18 07:20:02;;;;;;;4.07;1.67;;;;;;;0.66;72.83;102395.78;5062185;28;20143;-70
2023/11/18 07:22:29;;;;;;;3.65;1.80;;;;;;;0.70;73.31;102401.06;5060741;28;20106;-72
2023/11/18 07:24:56;;;;;;;2.58;1.25;;;;;;;0.70;73.00;102395.94;5061758;28;20056;-71
2023/11/18 07:27:22;;;;;;;2.13;1.33;;;;;;;0.72;73.24;102402.03;5056652;28;20545;-71
2023/11/18 07:29:49;;;;;;;3.20;1.63;;;;;;;0.71;73.50;102398.56;5059076;28;20068;-71
2023/11/18 07:32:19;;;;;;;2.38;1.30;;;;;;;0.73;73.59;102401.22;5063964;28;20040;-71
2023/11/18 07:34:46;;;;;;;2.70;1.42;;;;;;;0.74;73.06;102397.81;5058391;28;20413;-71
2023/11/18 07:37:13;;;;;;;5.10;1.88;;;;;;;0.73;73.26;102396.06;5062839;28;20048;-71
2023/11/18 07:39:44;;;;;;;5.95;1.63;;;;;;;0.73;73.59;102391.81;5060738;28;20052;-75
2023/11/18 07:42:12;;;;;;;2.38;1.30;;;;;;;0.76;73.86;102399.66;5057563;28;20049;-75
2023/11/18 07:44:39;;;;;;;3.88;1.70;;;;;;;0.75;73.61;102391.91;5058433;28;20066;-75
2023/11/18 07:47:07;;;;;;;5.50;1.75;;;;;;;0.79;73.63;102393.78;5062212;28;20036;-74
2023/11/18 07:49:36;;;;;;;1.60;1.17;;;;;;;0.79;73.20;102401.50;5063157;28;20653;-75
2023/11/18 07:52:03;;;;;;;2.83;1.17;;;;;;;0.82;73.15;102396.50;5059832;28;20106;-72
2023/11/18 07:54:30;;;;;;;4.25;1.65;;;;;;;0.83;73.58;102403.44;5059536;28;20048;-71
2023/11/18 07:56:57;;;;;;;1.75;0.88;;;;;;;0.84;73.09;102393.19;5061004;28;20045;-72
2023/11/18 07:59:24;;;;;;;4.82;1.48;;;;;;;0.86;73.42;102398.44;5061314;28;20084;-73
2023/11/18 08:01:50;;;;;;;2.28;1.15;;;;;;;0.86;73.28;102401.00;5059641;28;20045;-72
2023/11/18 08:04:20;;;;;;;1.77;0.85;;;;;;;0.88;73.27;102391.63;5061992;28;20053;-72
2023/11/18 08:06:48;;;;;;;1.95;1.13;;;;;;;0.87;73.33;102400.19;5060114;28;20056;-71
2023/11/18 08:09:22;;;;;;;2.20;0.80;;;;;;;0.88;72.94;102399.34;5057215;28;20045;-71
2023/11/18 08:11:49;;;;;;;1.45;0.70;;;;;;;0.89;73.14;102393.44;5056801;28;20144;-72
2023/11/18 08:14:17;;;;;;;2.33;0.90;;;;;;;0.88;73.02;102395.13;5061431;28;20087;-71
2023/11/18 08:16:43;;;;;;;2.65;0.70;;;;;;;0.88;72.98;102392.56;5053466;28;20053;-71
2023/11/18 08:19:10;;;;;;;1.95;0.75;;;;;;;0.90;73.38;102392.59;5057161;28;20049;-72
2023/11/18 08:21:38;;;;;;;3.25;0.88;;;;;;;0.89;72.89;102390.84;5060348;28;20161;-71
2023/11/18 08:24:08;;;;;;;3.08;0.60;;;;;;;0.91;72.73;102394.34;5058206;28;20103;-71
2023/11/18 08:26:35;;;;;;;4.28;1.13;;;;;;;0.89;72.60;102393.44;5054811;28;20051;-71
2023/11/18 08:29:02;;;;;;;3.50;1.35;;;;;;;0.91;72.60;102402.06;5062399;28;20138;-71
2023/11/18 08:31:29;;;;;;;3.70;1.20;;;;;;;0.92;72.54;102392.69;5056584;28;20049;-72
2023/11/18 08:33:56;;;;;;;5.72;1.25;;;;;;;0.90;72.56;102388.34;5060895;28;20072;-72
2023/11/18 08:36:27;;;;;;;1.50;0.90;;;;;;;0.93;72.69;102392.75;5060060;28;20502;-71
2023/11/18 08:38:57;;;;;;;1.70;1.10;;;;;;;0.94;73.13;102391.03;5058948;28;20044;-71
2023/11/18 08:41:25;;;;;;;4.05;1.10;;;;;;;0.93;72.74;102395.31;5057470;28;20049;-71
2023/11/18 08:43:53;;;;;;;1.73;0.95;;;;;;;0.94;72.55;102396.19;5059070;28;20049;-71
2023/11/18 08:46:20;;;;;;;1.83;1.08;;;;;;;0.95;72.57;102403.13;5059286;28;20458;-72
2023/11/18 08:48:47;;;;;;;3.45;0.90;;;;;;;0.95;73.02;102404.00;5058693;28;20494;-71
2023/11/18 08:51:16;;;;;;;2.63;1.48;;;;;;;0.95;72.29;102406.56;5060437;28;20048;-72
2023/11/18 08:53:43;;;;;;;2.45;1.20;;;;;;;0.95;72.92;102398.84;5057958;28;20045;-73
2023/11/18 08:56:13;;;;;;;1.55;1.13;;;;;;;0.98;72.13;102403.25;5057545;28;20398;-72
2023/11/18 08:58:44;;;;;;;1.67;0.90;;;;;;;0.98;72.82;102404.13;5057092;28;20059;-72
2023/11/18 09:01:14;;;;;;;2.53;1.13;;;;;;;0.98;72.61;102401.56;5055128;28;20049;-72
2023/11/18 09:03:48;;;;;;;3.38;1.50;;;;;;;0.98;72.73;102399.00;5054201;28;20060;-75
2023/11/18 09:06:25;;;;;;;10.15;1.40;;;;;;;0.99;72.26;102405.00;5057401;28;20049;-74
2023/11/18 09:08:57;;;;;;;10.05;1.90;;;;;;;0.86;71.93;102373.56;5058310;28;20067;-76
2023/11/18 09:11:27;;;;;;;5.15;1.52;;;;;;;1.00;71.96;102402.53;5043577;28;20052;-76
2023/11/18 09:14:00;;;;;;;2.85;1.05;;;;;;;0.96;72.36;102398.03;5060618;28;20045;-75
2023/11/18 09:16:29;;;;;;;1.63;0.75;;;;;;;1.01;71.97;102403.41;5056246;28;20115;-76
2023/11/18 09:18:58;;;;;;;1.98;0.80;;;;;;;1.00;71.91;102397.38;5057685;28;20675;-75
2023/11/18 09:21:29;;;;;;;2.38;0.75;;;;;;;1.02;72.54;102400.88;5056210;28;20063;-75
2023/11/18 09:23:58;;;;;;;2.92;0.80;;;;;;;1.01;71.63;102401.72;5062529;28;20044;-76
2023/11/18 09:26:25;;;;;;;1.85;0.90;;;;;;;0.89;71.64;102383.13;5062182;28;20075;-76
2023/11/18 09:28:52;;;;;;;1.83;1.20;;;;;;;1.02;71.78;102405.16;5058691;28;20047;-76
2023/11/18 09:31:21;;;;;;;4.05;1.27;;;;;;;0.99;71.78;102405.88;5062261;28;20051;-76
2023/11/18 09:33:51;;;;;;;1.52;0.75;;;;;;;1.01;72.07;102400.84;5056459;28;20049;-77
2023/11/18 09:36:19;;;;;;;2.00;0.70;;;;;;;1.00;71.62;102396.50;5058578;28;20090;-76
2023/11/18 09:38:46;;;;;;;1.20;0.50;;;;;;;0.99;72.13;102405.88;5060873;28;20132;-77
2023/11/18 09:41:13;;;;;;;1.08;0.68;;;;;;;0.99;71.91;102411.03;5061152;28;20391;-77
2023/11/18 09:43:45;;;;;;;3.25;1.00;;;;;;;0.99;71.77;102405.00;5057645;28;20043;-76
2023/11/18 09:46:13;;;;;;;2.53;0.85;;;;;;;0.99;71.98;102408.47;5056262;28;20175;-77
2023/11/18 09:48:47;;;;;;;1.10;0.63;;;;;;;1.00;71.56;102409.38;5060597;28;20052;-76
2023/11/18 09:51:22;;;;;;;1.67;0.82;;;;;;;1.00;71.94;102401.66;5062274;28;20070;-77
2023/11/18 09:53:52;;;;;;;2.30;0.75;;;;;;;0.98;71.41;102406.72;5057481;28;20102;-76
2023/11/18 09:56:27;;;;;;;6.88;1.05;;;;;;;0.97;72.26;102407.53;5057720;28;20053;-76
2023/11/18 09:59:06;;;;;;;1.17;0.75;;;;;;;0.97;71.59;102397.25;5060676;28;20440;-75
2023/11/18 10:01:39;;;;;;;1.77;0.77;;;;;;;0.97;72.08;102399.81;5058490;28;20081;-75
2023/11/18 10:04:07;;;;;;;1.00;0.63;;;;;;;0.96;72.19;102405.75;5059296;28;20060;-72
2023/11/18 10:06:38;;;;;;;6.18;0.80;;;;;;;0.96;71.44;102410.91;5057129;28;20051;-72
2023/11/18 10:09:15;;;;;;;1.48;0.60;;;;;;;0.95;72.10;102404.00;5057303;28;20052;-72
2023/11/18 10:11:48;;;;;;;1.55;0.80;;;;;;;0.94;72.14;102409.97;5054838;28;20041;-72
2023/11/18 10:14:16;;;;;;;3.65;1.30;;;;;;;0.92;71.68;102406.44;5057716;28;20040;-71
2023/11/18 10:16:46;;;;;;;3.20;0.90;;;;;;;0.92;71.98;102411.56;5059052;28;20056;-72
2023/11/18 10:19:17;;;;;;;1.40;1.08;;;;;;;0.90;72.28;102402.91;5058389;28;20056;-72
2023/11/18 10:21:48;;;;;;;1.90;0.90;;;;;;;0.91;72.02;102402.06;5060765;28;20041;-72
2023/11/18 10:24:19;;;;;;;3.78;0.90;;;;;;;0.90;71.50;102400.31;5062224;28;20049;-72
2023/11/18 10:26:47;;;;;;;0.90;0.60;;;;;;;0.91;71.89;102404.66;5062388;28;20512;-72
2023/11/18 10:29:18;;;;;;;1.52;0.60;;;;;;;0.93;71.78;102409.88;5063291;28;20047;-72
2023/11/18 10:31:45;;;;;;;2.13;0.77;;;;;;;0.91;71.57;102412.38;5061734;28;20051;-71
2023/11/18 10:34:16;;;;;;;2.00;0.80;;;;;;;0.90;71.54;102418.34;5060623;28;20040;-73
2023/11/18 10:37:00;;;;;;;2.85;1.35;;;;;;;0.90;71.52;102418.34;5062256;28;20056;-71
2023/11/18 10:39:31;;;;;;;1.08;0.60;;;;;;;0.89;71.09;102417.44;5057464;28;20049;-71
2023/11/18 10:42:00;;;;;;;1.55;0.80;;;;;;;0.88;71.83;102412.22;5060978;28;20107;-72
2023/11/18 10:44:27;;;;;;;1.20;0.60;;;;;;;0.83;71.75;102403.44;5061688;28;20401;-71
2023/11/18 10:46:54;;;;;;;1.63;0.43;;;;;;;0.86;70.86;102413.88;5060421;28;20048;-71
2023/11/18 10:49:23;;;;;;;0.90;0.40;;;;;;;0.85;71.04;102409.50;5061933;28;20048;-72
2023/11/18 10:51:53;;;;;;;2.33;0.40;;;;;;;0.84;71.47;102412.91;5062666;28;20056;-71
2023/11/18 10:54:19;;;;;;;0.73;0.43;;;;;;;0.83;71.51;102413.72;5056052;28;20044;-71
2023/11/18 10:56:50;;;;;;;1.02;0.75;;;;;;;0.81;70.92;102412.75;5062439;28;20045;-72
2023/11/18 10:59:18;;;;;;;0.70;0.50;;;;;;;0.79;70.41;102411.78;5060006;28;20090;-72
2023/11/18 11:01:48;;;;;;;0.70;0.40;;;;;;;0.79;71.29;102416.94;5057464;28;20055;-71
2023/11/18 11:04:20;;;;;;;1.05;0.60;;;;;;;0.79;70.76;102409.22;5058084;28;20075;-71
2023/11/18 11:06:53;;;;;;;1.42;0.80;;;;;;;0.77;71.20;102405.69;5060398;28;20075;-71
2023/11/18 11:09:24;;;;;;;0.70;0.40;;;;;;;0.77;71.08;102410.81;5064440;28;20048;-71
2023/11/18 11:11:54;;;;;;;0.63;0.32;;;;;;;0.77;70.58;102418.53;5045885;28;20049;-72
2023/11/18 11:14:29;;;;;;;0.93;0.50;;;;;;;0.74;70.61;102413.25;5059230;28;20048;-72
2023/11/18 11:16:59;;;;;;;0.68;0.50;;;;;;;0.75;70.59;102415.91;5059735;28;20056;-73
2023/11/18 11:19:29;;;;;;;0.75;0.60;;;;;;;0.75;70.25;102415.91;5063093;28;20049;-73
2023/11/18 11:22:07;;;;;;;2.88;0.40;;;;;;;0.72;70.74;102410.63;5060729;28;20473;-74
2023/11/18 11:24:50;;;;;;;1.17;0.60;;;;;;;0.74;70.54;102414.16;5061947;28;20102;-74
2023/11/18 11:27:29;;;;;;;0.90;0.52;;;;;;;0.72;70.41;102410.63;5063556;28;20076;-74
2023/11/18 11:30:10;;;;;;;0.90;0.45;;;;;;;0.73;70.82;102416.66;5062249;28;20552;-74
2023/11/18 11:32:44;;;;;;;1.15;0.40;;;;;;;0.74;70.67;102415.81;5059196;28;20083;-74
2023/11/18 11:35:21;;;;;;;0.98;0.50;;;;;;;0.73;70.60;102412.38;5057514;28;20049;-74
2023/11/18 11:37:51;;;;;;;0.82;0.52;;;;;;;0.70;70.45;102409.66;5056020;28;20098;-74
2023/11/18 11:40:22;;;;;;;0.63;0.52;;;;;;;0.71;70.69;102415.69;5050619;28;20118;-74